Time;durP1;ratioP1;P1;durP2;ratioP2;P2;SDS_P1;SDS_P2;PMS_P1;PMS_P2;Temp;Humidity;BMP_temperature;BMP_pressure;BME280_temperature;BME280_humidity;BME280_pressure;Samples;Min_cycle;Max_cycle;Signal;HPM_P1;HPM_P2
2022/06/23 00:00:21;;;;;;;6.00;2.90;;;;;;100269.73;;;;107556;1288;32905;-40
2022/06/23 00:03:01;;;;;;;5.10;3.00;;;;;;100266.49;;;;107528;1288;34890;-40
2022/06/23 00:05:29;;;;;;;6.70;3.20;;;;;;100269.11;;;;107519;1289;34599;-40
2022/06/23 00:07:59;;;;;;;5.50;3.30;;;;;;100268.94;;;;107515;1288;34717;-40
2022/06/23 00:10:30;;;;;;;6.10;3.00;;;;;;100269.57;;;;107523;1289;34061;-40
2022/06/23 00:13:00;;;;;;;5.60;3.20;;;;;;100267.51;;;;107510;1289;34878;-40
2022/06/23 00:15:28;;;;;;;5.70;3.30;;;;;;100269.81;;;;107526;1289;34850;-40
2022/06/23 00:17:56;;;;;;;6.20;3.20;;;;;;100267.05;;;;107441;1289;35148;-40
2022/06/23 00:20:23;;;;;;;5.00;2.90;;;;;;100265.62;;;;107525;1288;33908;-40
2022/06/23 00:22:51;;;;;;;5.60;2.80;;;;;;100267.23;;;;107532;1288;34765;-40
2022/06/23 00:25:19;;;;;;;4.70;3.00;;;;;;100272.14;;;;107520;1288;34388;-40
2022/06/23 00:27:49;;;;;;;6.00;3.10;;;;;;100274.17;;;;107435;1290;34949;-40
2022/06/23 00:30:20;;;;;;;6.50;3.00;;;;;;100271.77;;;;107535;1289;34622;-40
2022/06/23 00:32:47;;;;;;;5.10;2.90;;;;;;100275.53;;;;107529;1288;34419;-40
2022/06/23 00:35:15;;;;;;;5.60;2.60;;;;;;100275.91;;;;107522;1289;34730;-40
2022/06/23 00:37:43;;;;;;;6.40;3.20;;;;;;100279.77;;;;107543;1288;35181;-40
2022/06/23 00:40:15;;;;;;;4.40;3.20;;;;;;100282.57;;;;107526;1292;33503;-40
2022/06/23 00:42:43;;;;;;;4.60;2.90;;;;;;100288.38;;;;107533;1288;34681;-41
2022/06/23 00:45:12;;;;;;;5.10;3.00;;;;;;100290.34;;;;107508;1288;34185;-40
2022/06/23 00:47:42;;;;;;;5.10;3.00;;;;;;100294.85;;;;107545;1288;32926;-40
2022/06/23 00:50:10;;;;;;;5.10;3.40;;;;;;100297.60;;;;107555;1288;34552;-40
2022/06/23 00:52:38;;;;;;;5.20;2.90;;;;;;100295.94;;;;107532;1288;34872;-40
2022/06/23 00:55:05;;;;;;;5.60;3.40;;;;;;100293.42;;;;107528;1287;32941;-41
2022/06/23 00:57:35;;;;;;;4.60;3.00;;;;;;100289.27;;;;107555;1289;34498;-40
2022/06/23 01:00:06;;;;;;;6.30;3.20;;;;;;100289.17;;;;107447;1290;33476;-40
2022/06/23 01:02:33;;;;;;;5.20;3.20;;;;;;100284.55;;;;107531;1289;35102;-40
2022/06/23 01:05:01;;;;;;;5.00;3.30;;;;;;100287.16;;;;107538;1289;32848;-40
2022/06/23 01:07:29;;;;;;;4.70;3.30;;;;;;100289.04;;;;107528;1289;34973;-40
2022/06/23 01:09:56;;;;;;;4.60;3.10;;;;;;100289.06;;;;107522;1288;33876;-40
2022/06/23 01:12:25;;;;;;;4.60;3.00;;;;;;100289.17;;;;107535;1288;33011;-40
2022/06/23 01:14:53;;;;;;;4.30;2.80;;;;;;100287.39;;;;107531;1291;34590;-40
2022/06/23 01:17:28;;;;;;;5.50;3.10;;;;;;100282.73;;;;107554;1289;34825;-40
2022/06/23 01:19:55;;;;;;;5.50;3.40;;;;;;100283.29;;;;107541;1289;35359;-40
2022/06/23 01:22:28;;;;;;;5.40;3.10;;;;;;100286.27;;;;107522;1288;34553;-41
2022/06/23 01:24:55;;;;;;;4.80;3.40;;;;;;100289.34;;;;107520;1289;34838;-40
2022/06/23 01:27:23;;;;;;;5.40;3.40;;;;;;100292.47;;;;107554;1288;32855;-40
2022/06/23 01:29:58;;;;;;;5.00;3.10;;;;;;100292.66;;;;107535;1288;34414;-40
2022/06/23 01:32:26;;;;;;;5.70;3.40;;;;;;100300.10;;;;107535;1288;34800;-42
2022/06/23 01:34:54;;;;;;;4.30;3.20;;;;;;100300.46;;;;107537;1290;35359;-40
2022/06/23 01:37:22;;;;;;;5.30;3.10;;;;;;100302.61;;;;107529;1288;33212;-40
2022/06/23 01:39:49;;;;;;;5.80;3.40;;;;;;100299.52;;;;107525;1289;34432;-40
2022/06/23 01:42:20;;;;;;;5.30;3.10;;;;;;100302.05;;;;107458;1290;34460;-40
2022/06/23 01:44:51;;;;;;;5.30;3.20;;;;;;100303.14;;;;107541;1288;32797;-40
2022/06/23 01:47:22;;;;;;;4.60;3.20;;;;;;100301.09;;;;107519;1288;33648;-40
2022/06/23 01:49:50;;;;;;;5.00;3.30;;;;;;100302.50;;;;107520;1288;35174;-41
2022/06/23 01:52:18;;;;;;;4.70;3.30;;;;;;100300.45;;;;107537;1288;35361;-40
2022/06/23 01:54:46;;;;;;;5.10;3.50;;;;;;100300.05;;;;107546;1289;34292;-40
2022/06/23 01:57:14;;;;;;;5.00;3.20;;;;;;100300.11;;;;107525;1288;34667;-42
2022/06/23 01:59:41;;;;;;;5.70;3.30;;;;;;100300.52;;;;107551;1288;32976;-42
2022/06/23 02:02:11;;;;;;;4.20;3.00;;;;;;100302.02;;;;107398;1291;34543;-42
2022/06/23 02:04:38;;;;;;;4.70;3.30;;;;;;100298.83;;;;107542;1288;34812;-43
2022/06/23 02:07:06;;;;;;;4.60;2.90;;;;;;100298.84;;;;107532;1288;34492;-42
2022/06/23 02:09:40;;;;;;;4.90;3.40;;;;;;100298.77;;;;107516;1288;34578;-42
2022/06/23 02:12:09;;;;;;;6.00;3.40;;;;;;100300.88;;;;107525;1288;34489;-41
2022/06/23 02:14:37;;;;;;;4.40;3.20;;;;;;100298.98;;;;107529;1288;34584;-42
2022/06/23 02:17:04;;;;;;;5.10;2.90;;;;;;100300.16;;;;107524;1288;34665;-42
2022/06/23 02:19:34;;;;;;;4.40;3.50;;;;;;100301.95;;;;107530;1288;34863;-41
2022/06/23 02:22:02;;;;;;;4.60;3.50;;;;;;100304.56;;;;107540;1288;34108;-42
2022/06/23 02:24:30;;;;;;;5.60;3.60;;;;;;100309.50;;;;107423;1288;34319;-42
2022/06/23 02:26:58;;;;;;;5.90;3.20;;;;;;100307.29;;;;107427;1290;34442;-43
2022/06/23 02:29:26;;;;;;;4.50;3.10;;;;;;100307.56;;;;107512;1288;34165;-42
2022/06/23 02:31:53;;;;;;;4.30;3.30;;;;;;100308.62;;;;107542;1291;35029;-43
2022/06/23 02:34:24;;;;;;;4.80;3.60;;;;;;100312.41;;;;107540;1288;34866;-42
2022/06/23 02:36:54;;;;;;;4.90;3.50;;;;;;100311.18;;;;107535;1288;34412;-42
2022/06/23 02:39:27;;;;;;;4.30;3.30;;;;;;100312.72;;;;107518;1288;34441;-42
2022/06/23 02:41:54;;;;;;;5.40;3.70;;;;;;100316.33;;;;107522;1288;32949;-41
2022/06/23 02:44:22;;;;;;;5.40;3.30;;;;;;100323.67;;;;107548;1288;34654;-43
2022/06/23 02:46:50;;;;;;;4.70;3.50;;;;;;100324.20;;;;107548;1288;35142;-41
2022/06/23 02:49:20;;;;;;;4.50;3.50;;;;;;100326.75;;;;107539;1288;35034;-42
2022/06/23 02:51:48;;;;;;;4.60;3.20;;;;;;100325.30;;;;107488;1288;34124;-42
2022/06/23 02:54:17;;;;;;;4.50;3.10;;;;;;100326.52;;;;107512;1288;34976;-42
2022/06/23 02:56:44;;;;;;;4.90;3.30;;;;;;100329.67;;;;107510;1288;35014;-41
2022/06/23 02:59:13;;;;;;;5.00;3.40;;;;;;100334.65;;;;107547;1287;34689;-41
2022/06/23 03:01:40;;;;;;;4.40;3.10;;;;;;100333.35;;;;107537;1288;34048;-41
2022/06/23 03:04:08;;;;;;;5.30;3.50;;;;;;100332.30;;;;107519;1289;35261;-42
2022/06/23 03:06:37;;;;;;;4.50;3.30;;;;;;100332.91;;;;107551;1288;32972;-42
2022/06/23 03:09:08;;;;;;;5.40;3.60;;;;;;100335.41;;;;107514;1288;34536;-42
2022/06/23 03:11:54;;;;;;;5.20;3.50;;;;;;100339.73;;;;107529;1287;34931;-41
2022/06/23 03:14:23;;;;;;;5.20;3.40;;;;;;100341.88;;;;107526;1288;33813;-42
2022/06/23 03:16:52;;;;;;;4.40;3.50;;;;;;100344.24;;;;107533;1288;32884;-42
2022/06/23 03:19:22;;;;;;;4.80;3.30;;;;;;100341.92;;;;107528;1288;34573;-43
2022/06/23 03:21:49;;;;;;;4.60;2.90;;;;;;100343.86;;;;107524;1291;34586;-42
2022/06/23 03:24:17;;;;;;;4.70;3.40;;;;;;100348.73;;;;107533;1288;34386;-42
2022/06/23 03:26:48;;;;;;;4.70;3.20;;;;;;100351.14;;;;107538;1289;33337;-42
2022/06/23 03:29:17;;;;;;;5.00;3.70;;;;;;100356.52;;;;107520;1288;34968;-41
2022/06/23 03:31:44;;;;;;;5.00;3.00;;;;;;100355.86;;;;107534;1288;34692;-41
2022/06/23 03:34:12;;;;;;;5.00;3.60;;;;;;100354.67;;;;107493;1288;32938;-41
2022/06/23 03:36:39;;;;;;;4.90;3.60;;;;;;100355.77;;;;107493;1288;34736;-41
2022/06/23 03:41:52;;;;;;;5.10;3.50;;;;;;100357.67;;;;107502;1288;35390;-42
2022/06/23 03:44:20;;;;;;;5.10;3.20;;;;;;100358.43;;;;107519;1288;34145;-42
2022/06/23 03:46:48;;;;;;;4.40;3.20;;;;;;100360.19;;;;107503;1288;34070;-41
2022/06/23 03:49:15;;;;;;;5.20;3.50;;;;;;100359.67;;;;107496;1288;34904;-42
2022/06/23 03:51:43;;;;;;;4.80;3.50;;;;;;100364.67;;;;107495;1288;34629;-41
2022/06/23 03:54:10;;;;;;;5.10;3.80;;;;;;100367.52;;;;107494;1288;34150;-41
2022/06/23 03:56:38;;;;;;;5.10;3.30;;;;;;100370.23;;;;107416;1289;35162;-41
2022/06/23 03:59:05;;;;;;;5.20;3.60;;;;;;100371.06;;;;107501;1288;33982;-41
2022/06/23 04:01:33;;;;;;;5.50;3.70;;;;;;100371.38;;;;107499;1288;35028;-41
2022/06/23 04:04:00;;;;;;;6.10;3.80;;;;;;100371.68;;;;107524;1288;34553;-41
2022/06/23 04:06:28;;;;;;;5.00;3.60;;;;;;100373.35;;;;107480;1288;32815;-42
2022/06/23 04:08:55;;;;;;;4.70;3.40;;;;;;100377.20;;;;107527;1288;34512;-41
2022/06/23 04:14:08;;;;;;;5.10;3.40;;;;;;100385.98;;;;107485;1288;34103;-42
2022/06/23 04:16:36;;;;;;;5.00;3.20;;;;;;100389.07;;;;107512;1287;34395;-41
2022/06/23 04:19:03;;;;;;;4.70;3.50;;;;;;100392.89;;;;107501;1288;34575;-43
2022/06/23 04:21:31;;;;;;;4.80;3.80;;;;;;100393.95;;;;107530;1288;34708;-42
2022/06/23 04:23:58;;;;;;;5.60;3.60;;;;;;100397.07;;;;107541;1288;32873;-41
2022/06/23 04:26:26;;;;;;;4.70;3.70;;;;;;100400.23;;;;107526;1288;34720;-42
2022/06/23 04:28:53;;;;;;;5.00;3.30;;;;;;100402.98;;;;107529;1288;34936;-43
2022/06/23 04:31:21;;;;;;;5.00;3.30;;;;;;100407.73;;;;107514;1288;32896;-42
2022/06/23 04:33:48;;;;;;;4.80;3.60;;;;;;100408.55;;;;107525;1287;34831;-41
2022/06/23 04:36:16;;;;;;;4.80;3.50;;;;;;100411.33;;;;107505;1288;34819;-42
2022/06/23 04:38:44;;;;;;;4.90;3.90;;;;;;100415.85;;;;107529;1288;34462;-41
2022/06/23 04:41:11;;;;;;;5.30;3.80;;;;;;100417.77;;;;107492;1288;34628;-42
2022/06/23 04:43:39;;;;;;;5.30;3.70;;;;;;100420.52;;;;107513;1288;34835;-42
2022/06/23 04:46:07;;;;;;;4.90;3.60;;;;;;100427.48;;;;107475;1288;34728;-42
2022/06/23 04:48:34;;;;;;;6.60;4.10;;;;;;100428.08;;;;107499;1288;34587;-42
2022/06/23 04:51:02;;;;;;;5.60;3.50;;;;;;100431.09;;;;107525;1288;34748;-42
2022/06/23 04:53:30;;;;;;;6.40;3.90;;;;;;100432.59;;;;107513;1288;34412;-41
2022/06/23 04:55:57;;;;;;;5.20;3.70;;;;;;100432.31;;;;107508;1288;34880;-42
2022/06/23 04:58:25;;;;;;;5.00;3.60;;;;;;100434.23;;;;107513;1288;34904;-42
2022/06/23 05:00:52;;;;;;;4.70;3.50;;;;;;100438.42;;;;107501;1288;34824;-42
2022/06/23 05:03:20;;;;;;;5.10;3.90;;;;;;100443.69;;;;107528;1288;34446;-42
2022/06/23 05:05:48;;;;;;;5.50;3.80;;;;;;100448.46;;;;107520;1288;34901;-42
2022/06/23 05:08:15;;;;;;;6.00;3.70;;;;;;100455.77;;;;107504;1288;35194;-42
2022/06/23 05:10:42;;;;;;;4.10;3.20;;;;;;100457.32;;;;107529;1288;34573;-42
2022/06/23 05:13:10;;;;;;;5.10;3.80;;;;;;100461.24;;;;107542;1288;34928;-42
2022/06/23 05:15:37;;;;;;;5.50;3.80;;;;;;100463.06;;;;107535;1287;34911;-42
2022/06/23 05:18:05;;;;;;;4.90;3.70;;;;;;100468.38;;;;107509;1288;34524;-42
2022/06/23 05:20:33;;;;;;;5.10;3.60;;;;;;100469.20;;;;107473;1288;34022;-41
2022/06/23 05:23:00;;;;;;;5.90;3.80;;;;;;100473.70;;;;107507;1288;34554;-41
2022/06/23 05:25:27;;;;;;;5.50;3.70;;;;;;100475.24;;;;107474;1288;33596;-42
2022/06/23 05:27:55;;;;;;;5.40;4.00;;;;;;100475.50;;;;107496;1288;34300;-43
2022/06/23 05:30:25;;;;;;;5.80;3.70;;;;;;100474.15;;;;107505;1288;35310;-43
2022/06/23 05:32:52;;;;;;;6.10;4.00;;;;;;100476.98;;;;107500;1288;32816;-43
2022/06/23 05:35:19;;;;;;;5.50;3.80;;;;;;100479.17;;;;107499;1288;34472;-41
2022/06/23 05:37:47;;;;;;;5.40;3.90;;;;;;100480.02;;;;107518;1288;34804;-42
2022/06/23 05:40:14;;;;;;;6.10;4.40;;;;;;100485.41;;;;107480;1288;34414;-42
2022/06/23 05:42:42;;;;;;;4.90;3.80;;;;;;100482.64;;;;107493;1288;33997;-42
2022/06/23 05:45:09;;;;;;;5.60;3.70;;;;;;100482.48;;;;107498;1288;34857;-42
2022/06/23 05:47:37;;;;;;;5.60;3.90;;;;;;100484.73;;;;107516;1288;35013;-42
2022/06/23 05:50:04;;;;;;;5.80;3.80;;;;;;100481.88;;;;107517;1288;34467;-42
2022/06/23 05:52:32;;;;;;;7.50;4.00;;;;;;100478.48;;;;107523;1288;34886;-43
2022/06/23 05:54:59;;;;;;;6.50;3.60;;;;;;100476.41;;;;107506;1288;34850;-42
2022/06/23 05:57:28;;;;;;;5.20;3.80;;;;;;100478.98;;;;107433;1288;34454;-42
2022/06/23 05:59:55;;;;;;;5.40;3.90;;;;;;100478.92;;;;107513;1291;35014;-42
2022/06/23 06:02:23;;;;;;;5.60;4.00;;;;;;100484.73;;;;107515;1288;34727;-42
2022/06/23 06:04:50;;;;;;;4.70;3.60;;;;;;100489.36;;;;106967;1288;730478;-42
2022/06/23 06:07:18;;;;;;;4.80;3.60;;;;;;100493.02;;;;107484;1288;34108;-41
2022/06/23 06:09:45;;;;;;;6.10;3.80;;;;;;100493.39;;;;107499;1288;34754;-42
2022/06/23 06:12:13;;;;;;;5.50;3.60;;;;;;100496.72;;;;107493;1288;33021;-43
2022/06/23 06:14:40;;;;;;;6.50;4.00;;;;;;100500.36;;;;107535;1288;34898;-42
2022/06/23 06:17:08;;;;;;;5.20;3.80;;;;;;100499.75;;;;107533;1288;34924;-42
2022/06/23 06:19:35;;;;;;;6.20;3.90;;;;;;100503.21;;;;107502;1288;34583;-42
2022/06/23 06:22:03;;;;;;;6.90;4.10;;;;;;100502.64;;;;107499;1288;34880;-42
2022/06/23 06:24:31;;;;;;;5.40;3.60;;;;;;100509.25;;;;107495;1288;35064;-42
2022/06/23 06:26:58;;;;;;;8.00;4.30;;;;;;100513.20;;;;107488;1288;33259;-42
2022/06/23 06:29:26;;;;;;;7.20;3.70;;;;;;100513.40;;;;107484;1288;34573;-42
2022/06/23 06:31:53;;;;;;;8.00;3.90;;;;;;100513.42;;;;107493;1288;34564;-42
2022/06/23 06:34:21;;;;;;;6.70;3.50;;;;;;100517.48;;;;107496;1288;34607;-42
2022/06/23 06:36:49;;;;;;;5.80;3.90;;;;;;100520.92;;;;107493;1288;35011;-42
2022/06/23 06:39:16;;;;;;;6.20;3.90;;;;;;100521.89;;;;107482;1288;34784;-42
2022/06/23 06:41:44;;;;;;;8.80;3.70;;;;;;100522.50;;;;107508;1288;33397;-42
2022/06/23 06:44:12;;;;;;;5.70;3.90;;;;;;100526.30;;;;107505;1288;34461;-42
2022/06/23 06:46:39;;;;;;;6.20;4.10;;;;;;100526.73;;;;107517;1288;34853;-32
2022/06/23 06:49:07;;;;;;;5.90;3.50;;;;;;100527.20;;;;107486;1288;34522;-34
2022/06/23 06:51:34;;;;;;;7.20;3.70;;;;;;100528.63;;;;107491;1288;34138;-34
2022/06/23 06:54:01;;;;;;;6.50;3.60;;;;;;100530.77;;;;107482;1288;34927;-34
2022/06/23 06:56:29;;;;;;;6.30;3.30;;;;;;100535.38;;;;107483;1288;34940;-34
2022/06/23 06:58:56;;;;;;;6.80;3.50;;;;;;100534.05;;;;107500;1288;34133;-36
2022/06/23 07:01:24;;;;;;;5.60;3.70;;;;;;100535.63;;;;107520;1288;34122;-37
2022/06/23 07:03:57;;;;;;;5.70;4.10;;;;;;100537.64;;;;107493;1288;34570;-36
2022/06/23 07:06:25;;;;;;;8.40;3.80;;;;;;100539.73;;;;107494;1288;32855;-36
2022/06/23 07:08:52;;;;;;;6.10;3.80;;;;;;100538.56;;;;107485;1288;34102;-36
2022/06/23 07:11:20;;;;;;;6.90;3.70;;;;;;100538.20;;;;107488;1288;34778;-36
2022/06/23 07:13:48;;;;;;;5.30;3.40;;;;;;100537.39;;;;107421;1288;32884;-36
2022/06/23 07:16:15;;;;;;;6.00;3.70;;;;;;100541.89;;;;107416;1288;33937;-38
2022/06/23 07:18:43;;;;;;;5.30;3.60;;;;;;100546.02;;;;107427;1288;34883;-35
2022/06/23 07:21:11;;;;;;;5.10;3.50;;;;;;100546.58;;;;107416;1288;33448;-39
2022/06/23 07:23:38;;;;;;;6.60;3.80;;;;;;100548.64;;;;107494;1287;34895;-38
2022/06/23 07:26:06;;;;;;;6.10;3.50;;;;;;100546.50;;;;107542;1287;34606;-36
2022/06/23 07:28:33;;;;;;;6.70;3.60;;;;;;100547.60;;;;107435;1288;34365;-37
2022/06/23 07:31:00;;;;;;;5.70;3.40;;;;;;100550.21;;;;107519;1287;34782;-37
2022/06/23 07:33:28;;;;;;;4.40;3.00;;;;;;100546.95;;;;107394;1289;34760;-38
2022/06/23 07:35:55;;;;;;;5.60;3.40;;;;;;100547.66;;;;107386;1290;32890;-35
2022/06/23 07:38:23;;;;;;;5.70;3.20;;;;;;100547.27;;;;107416;1289;34851;-33
2022/06/23 07:40:50;;;;;;;7.80;4.20;;;;;;100547.73;;;;107411;1290;32878;-33
2022/06/23 07:43:18;;;;;;;7.90;3.70;;;;;;100550.86;;;;107559;1287;35069;-33
2022/06/23 07:45:45;;;;;;;5.80;3.50;;;;;;100550.23;;;;107402;1290;34178;-34
2022/06/23 07:48:13;;;;;;;5.30;3.30;;;;;;100552.07;;;;107515;1287;35102;-33
2022/06/23 07:50:40;;;;;;;4.90;3.20;;;;;;100555.16;;;;107486;1288;34875;-34
2022/06/23 07:53:07;;;;;;;5.30;3.30;;;;;;100560.14;;;;107466;1288;34462;-34
2022/06/23 07:55:35;;;;;;;5.30;3.40;;;;;;100561.20;;;;107399;1289;34758;-35
2022/06/23 07:58:02;;;;;;;6.00;3.10;;;;;;100562.46;;;;107465;1288;34504;-35
2022/06/23 08:00:30;;;;;;;6.60;3.90;;;;;;100564.80;;;;107448;1288;35049;-36
2022/06/23 08:03:00;;;;;;;5.10;3.10;;;;;;100563.05;;;;107471;1288;34526;-36
2022/06/23 08:05:28;;;;;;;5.50;3.30;;;;;;100560.61;;;;107478;1288;35352;-40
2022/06/23 08:07:55;;;;;;;4.90;3.10;;;;;;100560.23;;;;107430;1293;34773;-35
2022/06/23 08:10:23;;;;;;;5.90;3.50;;;;;;100554.95;;;;107480;1288;34586;-36
2022/06/23 08:12:56;;;;;;;5.00;2.90;;;;;;100550.80;;;;107475;1288;35316;-37
2022/06/23 08:18:09;;;;;;;5.80;3.90;;;;;;100548.63;;;;107474;1288;33148;-38
2022/06/23 08:20:37;;;;;;;5.60;3.40;;;;;;100546.59;;;;107486;1288;34677;-38
2022/06/23 08:23:04;;;;;;;4.90;3.10;;;;;;100548.73;;;;107371;1290;37544;-38
2022/06/23 08:25:32;;;;;;;6.60;3.20;;;;;;100552.85;;;;107511;1287;32905;-37
2022/06/23 08:27:59;;;;;;;5.70;3.00;;;;;;100551.66;;;;107447;1288;34501;-38
2022/06/23 08:30:26;;;;;;;6.00;3.60;;;;;;100554.70;;;;107518;1287;35227;-38
2022/06/23 08:32:54;;;;;;;6.20;3.30;;;;;;100552.02;;;;107517;1287;34407;-37
2022/06/23 08:35:21;;;;;;;5.60;2.90;;;;;;100549.15;;;;107425;1288;34402;-38
2022/06/23 08:37:49;;;;;;;5.40;3.10;;;;;;100554.49;;;;107506;1287;35169;-39
2022/06/23 08:40:16;;;;;;;5.60;3.30;;;;;;100552.45;;;;107523;1287;32767;-37
2022/06/23 08:42:44;;;;;;;5.90;3.10;;;;;;100552.14;;;;107435;1287;34498;-38
2022/06/23 08:45:11;;;;;;;5.10;3.00;;;;;;100554.20;;;;107422;1289;34700;-39
2022/06/23 08:47:39;;;;;;;5.70;3.40;;;;;;100555.04;;;;107397;1290;34683;-43
2022/06/23 08:50:06;;;;;;;6.10;3.50;;;;;;100562.55;;;;107533;1287;34508;-40
2022/06/23 08:52:34;;;;;;;6.50;3.40;;;;;;100562.53;;;;107532;1287;34620;-40
2022/06/23 08:55:01;;;;;;;5.10;3.20;;;;;;100561.27;;;;107536;1287;34371;-40
2022/06/23 08:57:28;;;;;;;6.50;3.40;;;;;;100554.30;;;;107514;1287;35003;-38
2022/06/23 08:59:56;;;;;;;5.00;3.60;;;;;;100552.73;;;;107437;1289;34714;-39
2022/06/23 09:02:23;;;;;;;5.90;3.10;;;;;;100553.20;;;;107513;1287;34590;-39
2022/06/23 09:04:51;;;;;;;5.90;3.30;;;;;;100560.10;;;;107373;1289;34700;-40
2022/06/23 09:07:19;;;;;;;6.10;3.30;;;;;;100559.72;;;;107450;1288;34688;-40
2022/06/23 09:09:46;;;;;;;5.20;3.30;;;;;;100556.52;;;;107427;1289;32789;-41
2022/06/23 09:12:14;;;;;;;5.10;3.00;;;;;;100559.95;;;;107542;1287;34863;-40
2022/06/23 09:14:41;;;;;;;5.20;3.10;;;;;;100556.86;;;;107409;1289;34648;-40
2022/06/23 09:17:09;;;;;;;5.90;3.00;;;;;;100559.14;;;;107422;1289;35151;-39
2022/06/23 09:19:36;;;;;;;6.40;3.50;;;;;;100560.15;;;;107512;1287;33118;-40
2022/06/23 09:22:04;;;;;;;4.80;3.00;;;;;;100561.17;;;;107518;1287;34869;-35
2022/06/23 09:24:31;;;;;;;5.80;3.10;;;;;;100558.18;;;;107514;1288;33992;-37
2022/06/23 09:26:59;;;;;;;4.90;3.00;;;;;;100558.61;;;;107498;1288;34669;-37
2022/06/23 09:29:26;;;;;;;5.10;3.10;;;;;;100563.13;;;;107470;1288;34976;-36
2022/06/23 09:31:54;;;;;;;5.10;3.30;;;;;;100569.27;;;;107439;1289;34794;-36
2022/06/23 09:34:22;;;;;;;4.90;3.00;;;;;;100569.90;;;;107494;1288;35299;-33
2022/06/23 09:36:49;;;;;;;5.70;3.20;;;;;;100572.04;;;;107499;1288;34681;-40
2022/06/23 09:39:17;;;;;;;6.10;3.00;;;;;;100574.86;;;;107488;1288;35159;-39
2022/06/23 09:41:44;;;;;;;5.10;3.20;;;;;;100574.80;;;;107470;1288;32857;-42
2022/06/23 09:44:12;;;;;;;4.90;3.10;;;;;;100568.84;;;;107424;1289;34486;-41
2022/06/23 09:46:39;;;;;;;5.00;3.00;;;;;;100573.88;;;;107475;1287;35246;-42
2022/06/23 09:49:06;;;;;;;5.10;3.10;;;;;;100571.75;;;;107392;1289;34146;-35
2022/06/23 09:51:34;;;;;;;5.30;3.00;;;;;;100566.59;;;;107414;1289;34536;-33
2022/06/23 09:54:01;;;;;;;5.70;3.10;;;;;;100564.86;;;;107482;1288;34382;-34
2022/06/23 09:56:29;;;;;;;4.80;2.70;;;;;;100568.27;;;;107487;1288;34753;-36
2022/06/23 09:58:56;;;;;;;4.70;3.00;;;;;;100569.11;;;;107492;1288;34851;-41
2022/06/23 10:01:24;;;;;;;5.70;2.80;;;;;;100565.04;;;;107494;1288;35399;-43
2022/06/23 10:03:51;;;;;;;4.40;2.70;;;;;;100567.79;;;;107461;1288;34537;-38
2022/06/23 10:06:19;;;;;;;4.30;2.50;;;;;;100564.96;;;;107502;1288;34694;-37
2022/06/23 10:08:46;;;;;;;4.90;2.90;;;;;;100565.51;;;;107484;1288;34535;-39
2022/06/23 10:11:13;;;;;;;4.60;2.70;;;;;;100567.73;;;;107412;1290;32631;-39
2022/06/23 10:13:41;;;;;;;4.70;2.80;;;;;;100567.79;;;;107458;1288;34379;-39
2022/06/23 10:16:08;;;;;;;4.00;2.70;;;;;;100570.68;;;;107480;1288;34546;-42
2022/06/23 10:18:36;;;;;;;4.20;2.60;;;;;;100568.09;;;;107462;1288;33342;-42
2022/06/23 10:21:03;;;;;;;4.10;2.50;;;;;;100568.35;;;;107470;1288;34966;-42
2022/06/23 10:23:31;;;;;;;4.70;2.80;;;;;;100560.77;;;;107504;1287;34567;-38
2022/06/23 10:25:58;;;;;;;4.70;2.80;;;;;;100560.80;;;;107530;1287;33808;-39
2022/06/23 10:28:26;;;;;;;5.00;2.70;;;;;;100558.20;;;;107530;1287;34364;-36
2022/06/23 10:30:53;;;;;;;4.20;2.60;;;;;;100562.45;;;;107524;1287;34386;-35
2022/06/23 10:33:21;;;;;;;4.00;2.60;;;;;;100567.21;;;;107437;1290;34651;-44
2022/06/23 10:35:48;;;;;;;3.70;2.50;;;;;;100567.05;;;;107545;1287;33052;-38
2022/06/23 10:38:17;;;;;;;4.60;2.80;;;;;;100571.97;;;;107555;1287;34651;-46
2022/06/23 10:40:44;;;;;;;4.90;3.00;;;;;;100573.27;;;;107527;1287;34769;-39
2022/06/23 10:43:12;;;;;;;5.00;2.50;;;;;;100574.40;;;;107512;1287;34362;-41
2022/06/23 10:45:39;;;;;;;5.00;2.70;;;;;;100571.76;;;;107524;1287;34619;-41
2022/06/23 10:48:07;;;;;;;6.70;2.80;;;;;;100570.02;;;;107546;1287;32922;-41
2022/06/23 10:50:34;;;;;;;5.10;2.60;;;;;;100569.92;;;;107510;1287;34511;-41
2022/06/23 10:53:02;;;;;;;3.70;2.50;;;;;;100571.80;;;;107488;1288;34595;-41
2022/06/23 10:55:29;;;;;;;4.50;2.70;;;;;;100567.27;;;;107473;1288;35191;-41
2022/06/23 10:57:57;;;;;;;4.50;2.60;;;;;;100571.73;;;;107501;1287;34403;-39
2022/06/23 11:00:24;;;;;;;5.60;2.50;;;;;;100571.39;;;;107480;1288;34693;-39
2022/06/23 11:02:52;;;;;;;5.00;2.70;;;;;;100566.84;;;;107496;1288;34718;-38
2022/06/23 11:05:19;;;;;;;4.50;2.80;;;;;;100565.34;;;;107494;1288;34488;-41
2022/06/23 11:07:46;;;;;;;4.60;2.50;;;;;;100563.08;;;;107489;1288;34537;-37
2022/06/23 11:10:14;;;;;;;4.40;2.40;;;;;;100566.80;;;;107479;1288;34571;-39
2022/06/23 11:12:42;;;;;;;4.40;2.50;;;;;;100567.50;;;;107480;1288;34554;-41
2022/06/23 11:15:09;;;;;;;4.40;2.60;;;;;;100565.43;;;;107481;1288;34498;-39
2022/06/23 11:17:36;;;;;;;5.60;2.80;;;;;;100565.75;;;;107482;1288;34958;-40
2022/06/23 11:20:04;;;;;;;4.50;2.40;;;;;;100570.02;;;;107477;1287;32692;-41
2022/06/23 11:22:31;;;;;;;4.60;2.90;;;;;;100566.18;;;;107486;1288;35059;-40
2022/06/23 11:24:59;;;;;;;4.20;2.30;;;;;;100570.27;;;;107478;1288;34718;-39
2022/06/23 11:27:26;;;;;;;6.10;2.80;;;;;;100563.19;;;;107477;1287;34496;-39
2022/06/23 11:29:54;;;;;;;3.80;2.10;;;;;;100561.42;;;;107463;1288;34448;-40
2022/06/23 11:32:23;;;;;;;4.70;2.70;;;;;;100561.75;;;;107487;1288;34482;-39
2022/06/23 11:34:51;;;;;;;4.70;2.60;;;;;;100561.85;;;;107478;1288;33736;-39
2022/06/23 11:37:19;;;;;;;4.50;2.40;;;;;;100563.89;;;;107497;1288;34237;-38
2022/06/23 11:39:46;;;;;;;4.00;2.40;;;;;;100562.35;;;;107490;1288;35124;-40
2022/06/23 11:42:13;;;;;;;3.90;2.40;;;;;;100562.52;;;;107474;1287;32835;-39
2022/06/23 11:44:41;;;;;;;4.10;2.40;;;;;;100559.79;;;;107492;1288;34888;-38
2022/06/23 11:47:08;;;;;;;5.10;2.60;;;;;;100556.17;;;;107449;1289;34750;-37
2022/06/23 11:49:36;;;;;;;4.40;2.30;;;;;;100553.67;;;;107508;1288;35102;-38
2022/06/23 11:52:04;;;;;;;4.20;2.40;;;;;;100563.59;;;;107508;1288;34451;-40
2022/06/23 11:54:31;;;;;;;3.70;2.10;;;;;;100563.36;;;;107471;1288;34610;-39
2022/06/23 11:56:59;;;;;;;3.90;2.40;;;;;;100563.85;;;;107496;1287;33249;-41
2022/06/23 11:59:26;;;;;;;4.60;2.50;;;;;;100560.46;;;;107444;1289;34458;-42
2022/06/23 12:01:54;;;;;;;3.80;2.30;;;;;;100559.42;;;;107480;1288;34756;-42
2022/06/23 12:04:21;;;;;;;4.10;2.30;;;;;;100558.89;;;;107486;1288;34806;-41
2022/06/23 12:06:49;;;;;;;3.80;2.00;;;;;;100559.95;;;;107480;1288;34473;-41
2022/06/23 12:09:17;;;;;;;5.40;2.40;;;;;;100562.02;;;;107494;1288;35022;-40
2022/06/23 12:11:44;;;;;;;5.50;2.40;;;;;;100557.77;;;;107474;1288;34710;-40
2022/06/23 12:14:12;;;;;;;4.20;2.40;;;;;;100556.35;;;;107485;1288;34390;-40
2022/06/23 12:16:39;;;;;;;3.90;2.40;;;;;;100556.98;;;;107493;1288;35009;-40
2022/06/23 12:19:06;;;;;;;6.60;2.30;;;;;;100557.30;;;;107473;1288;33890;-41
2022/06/23 12:21:34;;;;;;;4.30;2.20;;;;;;100554.98;;;;107467;1287;32584;-41
2022/06/23 12:24:01;;;;;;;4.60;2.40;;;;;;100559.13;;;;107489;1288;34658;-40
2022/06/23 12:26:29;;;;;;;4.30;2.30;;;;;;100557.43;;;;107481;1288;34411;-40
2022/06/23 12:28:57;;;;;;;3.80;2.30;;;;;;100557.36;;;;107480;1288;33885;-40
2022/06/23 12:31:24;;;;;;;4.00;2.30;;;;;;100557.98;;;;107459;1288;34419;-40
2022/06/23 12:33:51;;;;;;;3.70;2.20;;;;;;100554.89;;;;107489;1288;34238;-40
2022/06/23 12:36:19;;;;;;;4.10;2.10;;;;;;100551.57;;;;107485;1288;33414;-40
2022/06/23 12:38:46;;;;;;;4.10;2.10;;;;;;100551.75;;;;107470;1288;32637;-42
2022/06/23 12:41:14;;;;;;;5.10;2.30;;;;;;100549.13;;;;107418;1288;34324;-39
2022/06/23 12:43:43;;;;;;;4.40;2.10;;;;;;100548.87;;;;107473;1288;32600;-40
2022/06/23 12:46:12;;;;;;;5.30;2.40;;;;;;100545.46;;;;107495;1288;35345;-40
2022/06/23 12:48:40;;;;;;;3.70;1.90;;;;;;100546.00;;;;107472;1288;34416;-40
2022/06/23 12:51:07;;;;;;;5.70;2.20;;;;;;100547.95;;;;107501;1287;32732;-37
2022/06/23 12:53:35;;;;;;;4.70;2.30;;;;;;100548.29;;;;107515;1287;34814;-39
2022/06/23 12:56:03;;;;;;;4.60;1.90;;;;;;100546.88;;;;107473;1287;34527;-38
2022/06/23 12:58:31;;;;;;;4.20;2.20;;;;;;100546.96;;;;107490;1287;36049;-39